Time;durP1;ratioP1;P1;durP2;ratioP2;P2;SDS_P1;SDS_P2;PMS_P1;PMS_P2;Temp;Humidity;BMP_temperature;BMP_pressure;BME280_temperature;BME280_humidity;BME280_pressure;Samples;Min_cycle;Max_cycle;Signal;HPM_P1;HPM_P2
2023/05/18 00:00:01;;;;;;;15.00;8.10;;;;;;;26.08;31.67;100345.16;108165;1252;62334;-66
2023/05/18 00:02:30;;;;;;;12.00;7.50;;;;;;;26.03;31.55;100348.34;107991;1254;61266;-67
2023/05/18 00:05:00;;;;;;;14.40;7.70;;;;;;;26.04;31.70;100345.89;108203;1251;75769;-66
2023/05/18 00:07:32;;;;;;;16.50;8.20;;;;;;;25.99;31.51;100342.29;108129;1254;72930;-66
2023/05/18 00:10:00;;;;;;;13.30;8.40;;;;;;;25.98;31.66;100337.36;108187;1254;75026;-67
2023/05/18 00:12:27;;;;;;;10.60;6.60;;;;;;;26.16;31.64;100341.53;108130;1258;63425;-66
2023/05/18 00:14:54;;;;;;;15.10;8.20;;;;;;;25.94;31.61;100339.66;108226;1251;62378;-66
2023/05/18 00:17:22;;;;;;;10.80;7.90;;;;;;;25.74;32.12;100347.73;108089;1253;75955;-66
2023/05/18 00:19:50;;;;;;;18.10;7.90;;;;;;;25.60;32.34;100348.20;108155;1258;72159;-66
2023/05/18 00:22:17;;;;;;;16.80;8.90;;;;;;;25.61;32.51;100348.26;108257;1256;73672;-65
2023/05/18 00:24:45;;;;;;;12.10;7.40;;;;;;;25.81;31.99;100348.14;108186;1254;60710;-65
2023/05/18 00:27:12;;;;;;;14.60;7.60;;;;;;;25.87;31.84;100349.89;108314;1254;60782;-66
2023/05/18 00:29:39;;;;;;;13.70;7.50;;;;;;;25.75;31.86;100346.23;108216;1254;75784;-66
2023/05/18 00:32:06;;;;;;;15.20;7.70;;;;;;;25.72;31.73;100346.15;108067;1254;70424;-66
2023/05/18 00:34:36;;;;;;;13.50;8.00;;;;;;;25.58;32.15;100347.16;108276;1258;74954;-65
2023/05/18 00:37:03;;;;;;;12.60;7.60;;;;;;;25.50;32.16;100345.97;108140;1253;64278;-66
2023/05/18 00:39:30;;;;;;;14.50;7.90;;;;;;;25.45;32.19;100346.95;108182;1254;61123;-66
2023/05/18 00:41:57;;;;;;;11.10;7.40;;;;;;;25.38;32.19;100346.31;108146;1254;73647;-66
2023/05/18 00:44:23;;;;;;;14.60;7.70;;;;;;;25.39;32.24;100346.34;108236;1254;70298;-66
2023/05/18 00:46:51;;;;;;;12.80;7.90;;;;;;;25.26;32.25;100343.48;108170;1254;73897;-66
2023/05/18 00:49:18;;;;;;;12.10;7.90;;;;;;;25.01;32.71;100343.94;108128;1257;64342;-65
2023/05/18 00:51:44;;;;;;;10.90;7.60;;;;;;;24.95;32.92;100348.25;108097;1254;60638;-65
2023/05/18 00:54:11;;;;;;;13.90;7.40;;;;;;;25.22;32.42;100344.41;108042;1254;75074;-65
2023/05/18 00:56:40;;;;;;;13.00;6.80;;;;;;;24.98;32.43;100346.69;108016;1254;71391;-68
2023/05/18 00:59:11;;;;;;;12.70;7.40;;;;;;;24.79;32.71;100344.38;108259;1257;73547;-66
2023/05/18 01:01:42;;;;;;;12.90;7.00;;;;;;;24.70;32.82;100343.58;108115;1254;62113;-66
2023/05/18 01:04:12;;;;;;;10.90;6.40;;;;;;;24.82;32.51;100340.33;108105;1254;62659;-66
2023/05/18 01:06:41;;;;;;;11.70;7.20;;;;;;;24.95;32.27;100338.70;108207;1254;75970;-67
2023/05/18 01:09:10;;;;;;;14.30;7.00;;;;;;;25.09;32.07;100334.73;108236;1255;71286;-65
2023/05/18 01:12:19;;;;;;;11.90;7.60;;;;;;;25.11;32.23;100337.99;108234;1254;72368;-65
2023/05/18 01:15:00;;;;;;;11.30;7.00;;;;;;;24.96;32.35;100335.61;108063;1254;64372;-65
2023/05/18 01:17:49;;;;;;;13.40;7.50;;;;;;;25.25;32.22;100337.73;108191;1253;61626;-65
2023/05/18 01:20:48;;;;;;;14.50;7.10;;;;;;;25.33;31.94;100337.19;108108;1255;72878;-65
2023/05/18 01:23:53;;;;;;;12.90;7.50;;;;;;;25.33;31.90;100339.64;107981;1257;70263;-64
2023/05/18 01:26:28;;;;;;;15.30;7.20;;;;;;;25.46;31.64;100341.84;108227;1257;72847;-64
2023/05/18 01:28:58;;;;;;;14.50;7.90;;;;;;;25.59;31.56;100351.38;108230;1257;61847;-65
2023/05/18 01:31:25;;;;;;;17.80;7.80;;;;;;;25.60;31.69;100352.70;108058;1250;60419;-66
2023/05/18 01:33:52;;;;;;;14.40;7.40;;;;;;;25.41;32.14;100351.27;108204;1252;72422;-67
2023/05/18 01:36:19;;;;;;;20.30;7.90;;;;;;;25.33;32.17;100356.04;108213;1253;72804;-66
2023/05/18 01:38:46;;;;;;;16.60;7.70;;;;;;;25.22;32.32;100358.17;108217;1257;75011;-65
2023/05/18 01:41:21;;;;;;;16.30;7.70;;;;;;;25.06;32.47;100364.45;107999;1252;63066;-66
2023/05/18 01:44:06;;;;;;;12.00;8.10;;;;;;;24.88;32.91;100358.78;108152;1250;62068;-65
2023/05/18 01:46:42;;;;;;;14.10;8.20;;;;;;;24.94;33.02;100360.25;108195;1251;75655;-66
2023/05/18 01:49:24;;;;;;;14.30;8.10;;;;;;;25.01;33.04;100368.40;108176;1251;73032;-66
2023/05/18 01:51:51;;;;;;;12.10;8.60;;;;;;;24.95;33.08;100367.65;108126;1255;75041;-66
2023/05/18 01:54:18;;;;;;;12.40;8.70;;;;;;;24.85;33.22;100365.33;108105;1254;62629;-66
2023/05/18 01:56:45;;;;;;;12.20;8.50;;;;;;;24.32;33.96;100369.09;108272;1251;61079;-66
2023/05/18 01:59:11;;;;;;;13.60;8.50;;;;;;;24.43;33.71;100366.89;108087;1251;75965;-65
2023/05/18 02:01:38;;;;;;;10.10;7.70;;;;;;;24.79;33.35;100366.06;107991;1257;72470;-65
2023/05/18 02:04:09;;;;;;;19.20;9.70;;;;;;;25.01;32.96;100363.87;108021;1254;73604;-68
2023/05/18 02:06:36;;;;;;;;;;;;;;;24.85;33.22;100370.91;108136;1255;62649;-67
2023/05/18 02:09:04;;;;;;;15.40;8.30;;;;;;;24.53;33.72;100371.02;108191;1253;59044;-66
2023/05/18 02:11:32;;;;;;;15.80;8.50;;;;;;;24.46;33.70;100372.51;108212;1252;75741;-67
2023/05/18 02:13:59;;;;;;;14.30;9.20;;;;;;;24.49;33.91;100373.13;108019;1254;72616;-67
2023/05/18 02:16:26;;;;;;;14.80;8.80;;;;;;;24.53;33.90;100374.46;108007;1259;73096;-67
2023/05/18 02:18:54;;;;;;;14.50;9.10;;;;;;;24.53;33.81;100379.84;108133;1257;61428;-68
2023/05/18 02:21:22;;;;;;;17.00;9.60;;;;;;;24.42;33.94;100379.71;108138;1253;62362;-67
2023/05/18 02:23:49;;;;;;;12.00;9.40;;;;;;;24.05;34.53;100378.87;108134;1257;74861;-68
2023/05/18 02:26:16;;;;;;;13.10;9.50;;;;;;;23.97;34.67;100383.72;108171;1254;70745;-68
2023/05/18 02:28:51;;;;;;;11.50;8.50;;;;;;;23.93;34.79;100386.24;108290;1254;71443;-68
2023/05/18 02:31:18;;;;;;;15.20;8.90;;;;;;;23.85;34.91;100387.49;108115;1257;63734;-66
2023/05/18 02:33:45;;;;;;;12.60;8.10;;;;;;;23.85;34.95;100390.36;108162;1254;62293;-67
2023/05/18 02:36:13;;;;;;;11.40;8.80;;;;;;;24.10;34.64;100383.89;108177;1251;74651;-66
2023/05/18 02:38:41;;;;;;;16.10;8.50;;;;;;;24.03;34.67;100388.91;108256;1257;72396;-65
2023/05/18 02:41:09;;;;;;;12.90;7.70;;;;;;;24.00;34.79;100391.84;108083;1257;73350;-65
2023/05/18 02:43:36;;;;;;;13.70;8.50;;;;;;;24.12;34.63;100394.76;108236;1257;62874;-65
2023/05/18 02:46:03;;;;;;;12.30;8.30;;;;;;;24.29;34.53;100392.31;108143;1257;61165;-66
2023/05/18 02:48:31;;;;;;;14.00;9.10;;;;;;;24.37;34.38;100398.08;108155;1254;75824;-65
2023/05/18 02:50:58;;;;;;;11.90;8.60;;;;;;;24.05;35.01;100406.86;108129;1254;71557;-66
2023/05/18 02:53:25;;;;;;;13.10;8.70;;;;;;;24.28;34.72;100400.13;108139;1255;74365;-66
2023/05/18 02:56:02;;;;;;;15.30;8.90;;;;;;;24.43;34.41;100403.98;108167;1254;64275;-65
2023/05/18 02:58:37;;;;;;;12.70;8.90;;;;;;;24.60;34.17;100409.55;108172;1254;62137;-67
2023/05/18 03:01:21;;;;;;;13.30;7.60;;;;;;;24.68;34.14;100407.65;108160;1253;75830;-67
2023/05/18 03:03:51;;;;;;;15.30;8.60;;;;;;;24.88;33.92;100406.16;108152;1254;72387;-68
2023/05/18 03:06:25;;;;;;;15.50;8.80;;;;;;;24.95;33.71;100400.56;108140;1254;70970;-67
2023/05/18 03:08:53;;;;;;;15.10;8.20;;;;;;;24.45;34.32;100407.79;108006;1256;61698;-68
2023/05/18 03:11:22;;;;;;;24.70;9.90;;;;;;;24.46;34.45;100408.92;108175;1254;62626;-67
2023/05/18 03:13:49;;;;;;;11.50;8.00;;;;;;;24.89;33.88;100404.52;108195;1253;76165;-67
2023/05/18 03:16:17;;;;;;;24.90;8.90;;;;;;;24.74;34.22;100402.04;108134;1253;70589;-66
2023/05/18 03:18:45;;;;;;;20.70;8.90;;;;;;;25.13;33.64;100400.95;108181;1257;73336;-66
2023/05/18 03:21:14;;;;;;;18.70;7.80;;;;;;;25.75;33.14;100409.17;108116;1253;64128;-68
2023/05/18 03:23:41;;;;;;;23.70;9.10;;;;;;;25.91;32.82;100416.41;108120;1257;60748;-68
2023/05/18 03:26:10;;;;;;;14.00;7.70;;;;;;;25.76;32.96;100415.70;108133;1252;74933;-66
2023/05/18 03:28:37;;;;;;;14.50;7.10;;;;;;;26.13;32.66;100417.14;108152;1253;72006;-67
2023/05/18 03:31:04;;;;;;;13.60;7.30;;;;;;;26.43;32.22;100416.95;108082;1254;74742;-68
2023/05/18 03:33:32;;;;;;;16.80;7.30;;;;;;;27.39;31.31;100409.68;108114;1253;63982;-68
2023/05/18 03:36:02;;;;;;;18.30;8.40;;;;;;;28.56;29.72;100404.48;108154;1254;61966;-67
2023/05/18 03:38:29;;;;;;;17.50;7.70;;;;;;;28.97;29.28;100411.40;108365;1252;75845;-69
2023/05/18 03:41:00;;;;;;;16.90;7.00;;;;;;;29.47;28.56;100414.33;108138;1259;71315;-66
2023/05/18 03:43:31;;;;;;;14.10;7.10;;;;;;;29.78;28.08;100412.50;108068;1254;74804;-66
2023/05/18 03:45:59;;;;;;;22.40;6.90;;;;;;;30.29;27.29;100419.80;108231;1252;63786;-66
2023/05/18 03:48:26;;;;;;;13.70;6.30;;;;;;;30.72;26.69;100418.50;108138;1254;61648;-68
2023/05/18 03:50:53;;;;;;;14.90;6.40;;;;;;;31.30;25.93;100416.84;108135;1255;74228;-67
2023/05/18 03:53:20;;;;;;;12.10;6.80;;;;;;;31.42;25.75;100420.27;108120;1257;71698;-67
2023/05/18 03:55:50;;;;;;;13.90;6.50;;;;;;;31.37;25.77;100416.77;108130;1254;74316;-67
2023/05/18 03:58:21;;;;;;;10.50;6.10;;;;;;;31.77;25.50;100418.98;108096;1254;60591;-65
2023/05/18 04:00:49;;;;;;;;;;;;;;;32.51;24.61;100417.42;108231;1254;62278;-67
2023/05/18 04:03:17;;;;;;;11.70;6.20;;;;;;;32.55;24.63;100416.46;108228;1254;74214;-67
2023/05/18 04:05:44;;;;;;;16.80;7.10;;;;;;;32.66;24.16;100413.87;108091;1253;71142;-68
2023/05/18 04:08:14;;;;;;;10.80;6.20;;;;;;;32.75;24.23;100418.44;108104;1253;75071;-68
2023/05/18 04:10:42;;;;;;;16.70;6.40;;;;;;;32.92;23.90;100418.77;108147;1254;60497;-67
2023/05/18 04:13:09;;;;;;;12.00;6.30;;;;;;;33.08;23.61;100424.22;108114;1254;62346;-67
2023/05/18 04:15:36;;;;;;;14.60;5.80;;;;;;;33.30;23.16;100424.75;108087;1253;67162;-68
2023/05/18 04:18:03;;;;;;;8.90;5.60;;;;;;;33.55;22.82;100425.84;108122;1254;70491;-67
2023/05/18 04:20:30;;;;;;;8.40;5.40;;;;;;;33.61;22.54;100428.13;108053;1257;72889;-67
2023/05/18 04:22:57;;;;;;;12.50;6.20;;;;;;;33.77;21.58;100430.07;108165;1254;61258;-67
2023/05/18 04:25:27;;;;;;;38.90;7.50;;;;;;;33.60;21.56;100429.28;108213;1251;60284;-67
2023/05/18 04:27:54;;;;;;;13.40;5.40;;;;;;;33.87;21.46;100438.79;108251;1251;73010;-67
2023/05/18 04:30:25;;;;;;;10.50;5.70;;;;;;;34.08;21.41;100439.71;108330;1251;61766;-65
2023/05/18 04:32:53;;;;;;;13.70;5.60;;;;;;;33.65;21.43;100435.63;108125;1251;75252;-67
2023/05/18 04:35:20;;;;;;;13.60;6.10;;;;;;;33.43;21.91;100437.78;108277;1254;61765;-67
2023/05/18 04:37:47;;;;;;;16.40;5.80;;;;;;;33.59;21.86;100437.04;108248;1251;62364;-67
2023/05/18 04:40:16;;;;;;;17.00;6.30;;;;;;;34.25;21.25;100439.19;108243;1251;74321;-67
2023/05/18 04:42:46;;;;;;;10.10;5.00;;;;;;;34.57;20.89;100449.44;108237;1251;72491;-67
2023/05/18 04:45:18;;;;;;;11.00;5.40;;;;;;;34.76;20.57;100452.70;108175;1251;66126;-66
2023/05/18 04:47:46;;;;;;;18.00;5.60;;;;;;;34.70;20.73;100459.39;108193;1255;60561;-68
2023/05/18 04:50:16;;;;;;;12.50;5.70;;;;;;;34.86;20.47;100455.30;108164;1256;60360;-67
2023/05/18 04:52:47;;;;;;;10.90;5.00;;;;;;;34.93;20.58;100453.96;108234;1257;66196;-68
2023/05/18 04:55:21;;;;;;;10.10;4.90;;;;;;;35.18;20.18;100453.24;108284;1251;62716;-68
2023/05/18 04:57:49;;;;;;;16.20;5.20;;;;;;;35.58;19.86;100452.46;108274;1251;64892;-68
2023/05/18 05:00:17;;;;;;;13.40;5.40;;;;;;;35.89;19.63;100450.35;108270;1256;59906;-68
2023/05/18 05:02:44;;;;;;;10.60;4.80;;;;;;;35.98;19.73;100454.08;108212;1251;60427;-68
2023/05/18 05:05:11;;;;;;;12.90;4.70;;;;;;;36.09;19.53;100456.99;108275;1256;74898;-68
2023/05/18 05:07:38;;;;;;;8.00;4.00;;;;;;;36.25;19.37;100457.75;108182;1251;63604;-68
2023/05/18 05:10:08;;;;;;;18.60;5.40;;;;;;;36.71;19.05;100460.48;108266;1251;66309;-68
2023/05/18 05:12:38;;;;;;;8.80;4.40;;;;;;;36.98;18.79;100467.45;108340;1251;60447;-68
2023/05/18 05:15:06;;;;;;;10.20;4.40;;;;;;;36.92;18.64;100465.42;108380;1251;60276;-68
2023/05/18 05:17:33;;;;;;;9.30;4.40;;;;;;;37.26;18.45;100463.98;108293;1250;66868;-68
2023/05/18 05:20:00;;;;;;;7.40;4.10;;;;;;;37.29;18.12;100461.90;108182;1251;63800;-68
2023/05/18 05:22:27;;;;;;;14.20;4.60;;;;;;;37.11;18.31;100462.81;108156;1260;65281;-68
2023/05/18 05:24:54;;;;;;;8.40;4.20;;;;;;;36.81;18.62;100464.10;108158;1251;208747;-67
2023/05/18 05:28:04;;;;;;;8.20;3.90;;;;;;;34.56;20.61;100470.85;104923;1294;600194;-67
2023/05/18 05:30:32;;;;;;;8.90;4.00;;;;;;;36.39;18.93;100468.08;107388;1267;58709;-68
2023/05/18 05:32:59;;;;;;;5.70;3.60;;;;;;;36.96;18.31;100471.17;107347;1265;59165;-69
2023/05/18 05:35:27;;;;;;;15.20;4.30;;;;;;;36.75;18.31;100469.37;107387;1265;65869;-66
2023/05/18 05:37:57;;;;;;;7.90;4.00;;;;;;;36.98;18.37;100472.27;107394;1269;63778;-67
2023/05/18 05:40:24;;;;;;;7.80;5.00;;;;;;;36.81;18.80;100470.86;107292;1267;66037;-69
2023/05/18 05:42:52;;;;;;;10.50;4.70;;;;;;;36.61;18.90;100469.70;107186;1264;323773;-68
2023/05/18 05:45:18;;;;;;;13.10;4.10;;;;;;;36.85;18.80;100473.65;107465;1263;59170;-66
2023/05/18 05:47:53;;;;;;;12.10;4.70;;;;;;;36.92;18.68;100470.05;107398;1263;65136;-67
2023/05/18 05:50:21;;;;;;;17.70;5.20;;;;;;;36.93;18.66;100474.19;107464;1263;63608;-68
2023/05/18 05:52:49;;;;;;;8.70;4.40;;;;;;;37.21;18.57;100476.31;107395;1263;66529;-67
2023/05/18 05:55:17;;;;;;;9.20;4.00;;;;;;;37.51;18.54;100471.52;107441;1263;59128;-68
2023/05/18 05:57:44;;;;;;;12.10;4.10;;;;;;;37.83;18.17;100474.08;107425;1263;59120;-68
2023/05/18 06:00:11;;;;;;;7.00;3.80;;;;;;;37.77;18.18;100480.48;107363;1263;66431;-69
2023/05/18 06:02:49;;;;;;;12.00;4.40;;;;;;;37.79;18.06;100483.34;107376;1263;63660;-68
2023/05/18 06:05:23;;;;;;;12.00;4.40;;;;;;;38.17;17.66;100481.31;107397;1263;66123;-67
2023/05/18 06:07:50;;;;;;;11.70;4.10;;;;;;;38.28;17.73;100482.08;107416;1266;59119;-69
2023/05/18 06:10:17;;;;;;;13.50;4.40;;;;;;;38.38;17.42;100484.84;107336;1262;59615;-69
2023/05/18 06:12:44;;;;;;;8.40;3.60;;;;;;;38.52;17.16;100486.15;107911;1257;66360;-68
2023/05/18 06:15:11;;;;;;;6.50;3.90;;;;;;;38.14;17.29;100482.63;107636;1256;63595;-68
2023/05/18 06:17:39;;;;;;;9.10;4.30;;;;;;;37.84;17.50;100483.45;107740;1257;66150;-68
2023/05/18 06:20:07;;;;;;;10.30;4.20;;;;;;;37.89;17.62;100484.62;107744;1257;59623;-68
2023/05/18 06:22:35;;;;;;;13.70;3.40;;;;;;;38.35;17.14;100490.70;107830;1256;59577;-68
2023/05/18 06:25:17;;;;;;;11.70;3.70;;;;;;;38.73;16.90;100484.42;107689;1257;67106;-67
2023/05/18 06:28:07;;;;;;;12.40;3.80;;;;;;;39.06;16.40;100486.11;107809;1257;63764;-67
2023/05/18 06:30:41;;;;;;;8.50;3.70;;;;;;;39.09;16.35;100487.85;107856;1257;66243;-67
2023/05/18 06:33:20;;;;;;;13.00;3.70;;;;;;;38.96;16.48;100488.45;107935;1257;59558;-71
2023/05/18 06:35:47;;;;;;;9.60;3.60;;;;;;;39.55;15.83;100487.83;107784;1257;59503;-68
2023/05/18 06:38:14;;;;;;;6.70;3.60;;;;;;;39.50;15.32;100488.79;107850;1257;65439;-68
2023/05/18 06:40:40;;;;;;;6.00;3.30;;;;;;;39.58;15.53;100485.55;107789;1257;63641;-68
2023/05/18 06:43:09;;;;;;;10.30;3.60;;;;;;;40.18;15.35;100481.95;107721;1260;66465;-69
2023/05/18 06:45:55;;;;;;;7.40;3.50;;;;;;;40.45;14.98;100479.57;107756;1257;59765;-68
2023/05/18 06:48:30;;;;;;;15.70;3.70;;;;;;;40.68;14.85;100478.05;107794;1257;59615;-68
2023/05/18 06:50:57;;;;;;;8.70;3.70;;;;;;;40.55;14.59;100478.94;107641;1257;66408;-68
2023/05/18 06:53:25;;;;;;;14.20;3.80;;;;;;;40.26;14.50;100482.81;107488;1256;63486;-68
2023/05/18 06:55:52;;;;;;;10.50;3.50;;;;;;;39.77;14.71;100486.05;107584;1263;66024;-68
2023/05/18 06:58:19;;;;;;;10.40;3.20;;;;;;;40.16;14.70;100478.96;107646;1260;59606;-70
2023/05/18 07:00:47;;;;;;;8.80;3.20;;;;;;;40.14;14.52;100482.41;107738;1257;59473;-67
2023/05/18 07:03:14;;;;;;;6.20;3.40;;;;;;;40.16;14.53;100482.16;107780;1256;66472;-68
2023/05/18 07:05:41;;;;;;;8.10;3.10;;;;;;;39.96;14.51;100485.71;107707;1257;63428;-68
2023/05/18 07:08:12;;;;;;;10.30;3.10;;;;;;;39.80;14.36;100488.59;107725;1256;65881;-70
2023/05/18 07:10:39;;;;;;;7.90;2.60;;;;;;;39.49;14.41;100490.45;107875;1257;60089;-69
2023/05/18 07:13:06;;;;;;;9.20;2.60;;;;;;;39.39;14.11;100492.95;107796;1257;59268;-69
2023/05/18 07:15:33;;;;;;;5.10;2.50;;;;;;;39.11;14.56;100485.04;107805;1257;66585;-67
2023/05/18 07:18:02;;;;;;;6.80;2.80;;;;;;;39.34;14.54;100484.97;107776;1257;63312;-68
2023/05/18 07:20:29;;;;;;;5.40;2.60;;;;;;;40.01;14.49;100480.67;107795;1257;65117;-68
2023/05/18 07:22:56;;;;;;;5.50;3.00;;;;;;;40.04;14.67;100482.40;107757;1257;59749;-67
2023/05/18 07:25:23;;;;;;;6.40;2.70;;;;;;;40.09;14.16;100486.76;107818;1257;60274;-68
2023/05/18 07:27:53;;;;;;;5.90;3.30;;;;;;;40.50;14.09;100482.98;107744;1257;66305;-67
2023/05/18 07:30:21;;;;;;;5.30;2.30;;;;;;;40.15;14.04;100487.21;107763;1257;62599;-68
2023/05/18 07:32:48;;;;;;;4.60;2.60;;;;;;;40.20;13.99;100491.77;107827;1258;65041;-68
2023/05/18 07:35:15;;;;;;;8.30;2.90;;;;;;;40.76;13.63;100490.73;107828;1260;59193;-67
2023/05/18 07:37:42;;;;;;;8.70;3.10;;;;;;;40.84;13.37;100496.58;107760;1257;59260;-70
2023/05/18 07:40:10;;;;;;;6.10;3.30;;;;;;;40.86;12.92;100499.70;107850;1257;65333;-70
2023/05/18 07:42:40;;;;;;;6.40;3.30;;;;;;;40.81;12.95;100495.77;107609;1257;62771;-69
2023/05/18 07:45:07;;;;;;;10.40;3.30;;;;;;;40.89;13.04;100491.69;107744;1257;65969;-68
2023/05/18 07:47:34;;;;;;;9.30;3.10;;;;;;;41.20;12.94;100496.48;107770;1257;59534;-68
2023/05/18 07:50:01;;;;;;;11.70;3.60;;;;;;;41.25;13.03;100494.66;107709;1257;59540;-69
2023/05/18 07:52:28;;;;;;;8.50;3.40;;;;;;;41.12;13.44;100492.88;107924;1256;66335;-67
2023/05/18 07:54:58;;;;;;;12.10;4.10;;;;;;;41.21;13.07;100496.69;107798;1257;63731;-69
2023/05/18 07:57:25;;;;;;;5.90;4.00;;;;;;;40.98;12.80;100498.26;107740;1257;74778;-68
2023/05/18 07:59:52;;;;;;;5.30;4.20;;;;;;;40.51;12.81;100498.61;107771;1259;59637;-70
2023/05/18 08:02:19;;;;;;;10.90;4.30;;;;;;;40.48;13.04;100493.47;107749;1257;62270;-71
2023/05/18 08:04:46;;;;;;;13.60;5.20;;;;;;;41.14;12.89;100498.10;107739;1257;66376;-71
2023/05/18 08:07:13;;;;;;;12.50;5.70;;;;;;;41.44;12.45;100501.48;107713;1257;63610;-70
2023/05/18 08:09:40;;;;;;;7.70;4.80;;;;;;;41.30;12.37;100503.34;107730;1260;66132;-68
2023/05/18 08:12:07;;;;;;;9.30;4.70;;;;;;;40.83;12.30;100499.21;107720;1260;59531;-68
2023/05/18 08:14:34;;;;;;;8.60;4.00;;;;;;;40.74;12.64;100497.76;107730;1257;59567;-68
2023/05/18 08:17:03;;;;;;;13.60;4.70;;;;;;;40.75;12.74;100499.77;107720;1257;66325;-69
2023/05/18 08:19:32;;;;;;;7.70;4.10;;;;;;;40.60;12.75;100497.98;107769;1257;63396;-68
2023/05/18 08:21:59;;;;;;;10.00;4.20;;;;;;;40.80;12.86;100494.00;107689;1257;66194;-69
2023/05/18 08:24:26;;;;;;;11.20;4.50;;;;;;;40.42;13.28;100494.67;107901;1255;59746;-69
2023/05/18 08:26:53;;;;;;;9.30;4.90;;;;;;;40.37;13.25;100491.11;108030;1254;59032;-69
2023/05/18 08:29:20;;;;;;;12.00;5.40;;;;;;;40.49;13.31;100495.49;108064;1254;66370;-68
2023/05/18 08:31:47;;;;;;;11.40;5.50;;;;;;;40.51;12.83;100494.86;108106;1257;62735;-69
2023/05/18 08:34:15;;;;;;;8.80;5.50;;;;;;;40.62;12.56;100495.44;108121;1253;66038;-69
2023/05/18 08:36:44;;;;;;;13.00;5.00;;;;;;;40.69;12.84;100496.29;108142;1253;59499;-67
2023/05/18 08:39:11;;;;;;;9.70;6.30;;;;;;;40.73;12.56;100492.77;108073;1254;59634;-69
2023/05/18 08:41:57;;;;;;;12.20;6.30;;;;;;;40.64;12.32;100489.55;108113;1254;65248;-68
2023/05/18 08:44:37;;;;;;;10.80;6.40;;;;;;;40.64;12.31;100488.89;108033;1253;63609;-68
2023/05/18 08:47:08;;;;;;;9.80;5.50;;;;;;;40.18;12.47;100488.23;108046;1254;66229;-69
2023/05/18 08:49:37;;;;;;;8.60;5.60;;;;;;;39.94;12.86;100491.41;108095;1254;59762;-69
2023/05/18 08:52:04;;;;;;;10.80;5.30;;;;;;;39.72;13.00;100485.42;108086;1253;59548;-70
2023/05/18 08:54:31;;;;;;;12.10;5.50;;;;;;;40.08;12.80;100483.25;107941;1260;66592;-69
2023/05/18 08:56:57;;;;;;;12.30;6.00;;;;;;;39.96;13.00;100492.02;107871;1254;63597;-68
2023/05/18 08:59:26;;;;;;;9.50;5.40;;;;;;;38.89;13.43;100484.36;107968;1254;64966;-69
2023/05/18 09:01:53;;;;;;;14.90;5.50;;;;;;;38.91;13.54;100479.41;108082;1256;59698;-68
2023/05/18 09:04:21;;;;;;;10.50;5.90;;;;;;;39.17;13.77;100474.94;108055;1254;59506;-69
2023/05/18 09:06:51;;;;;;;9.10;5.30;;;;;;;39.77;13.14;100471.82;108086;1254;65321;-67
2023/05/18 09:09:18;;;;;;;11.60;5.20;;;;;;;41.01;12.21;100469.36;107861;1254;63948;-69
2023/05/18 09:11:45;;;;;;;10.00;5.40;;;;;;;41.18;12.12;100468.83;107956;1254;66267;-69
2023/05/18 09:14:12;;;;;;;8.70;5.00;;;;;;;41.08;12.25;100471.42;108033;1254;59647;-68
2023/05/18 09:16:39;;;;;;;9.90;5.60;;;;;;;41.24;12.33;100476.34;108102;1254;59542;-68
2023/05/18 09:19:08;;;;;;;8.60;5.80;;;;;;;41.35;12.14;100477.02;108035;1254;65301;-70
2023/05/18 09:21:35;;;;;;;12.00;5.40;;;;;;;41.35;12.15;100472.05;108114;1253;62453;-69
2023/05/18 09:24:02;;;;;;;10.10;5.80;;;;;;;41.35;11.92;100470.05;108028;1257;66371;-69
2023/05/18 09:26:29;;;;;;;8.60;5.50;;;;;;;41.28;11.68;100465.17;107882;1254;59730;-69
2023/05/18 09:28:58;;;;;;;9.00;5.50;;;;;;;41.40;11.64;100462.45;108073;1256;59686;-69
2023/05/18 09:31:26;;;;;;;10.20;5.80;;;;;;;41.28;11.80;100474.80;107998;1254;63616;-69
2023/05/18 09:33:54;;;;;;;12.20;5.60;;;;;;;41.73;11.27;100468.98;107950;1254;60527;-69
2023/05/18 09:36:25;;;;;;;9.00;5.40;;;;;;;41.72;11.22;100460.05;107983;1260;66146;-68
2023/05/18 09:38:52;;;;;;;8.80;4.90;;;;;;;42.26;11.20;100455.88;108159;1254;60857;-69
2023/05/18 09:41:20;;;;;;;9.70;4.70;;;;;;;42.70;11.06;100456.84;108029;1254;60342;-69
2023/05/18 09:43:47;;;;;;;11.40;5.00;;;;;;;42.48;10.99;100460.54;108039;1254;75015;-69
2023/05/18 09:46:16;;;;;;;7.90;4.70;;;;;;;42.08;11.24;100457.11;108098;1254;63659;-68
2023/05/18 09:48:51;;;;;;;8.30;5.10;;;;;;;41.92;11.40;100457.69;108081;1254;66102;-68
2023/05/18 09:51:18;;;;;;;6.70;4.90;;;;;;;42.06;11.21;100455.39;108052;1254;60546;-69
2023/05/18 09:53:52;;;;;;;14.30;5.30;;;;;;;41.73;11.42;100455.55;107924;1254;60107;-69
2023/05/18 09:56:20;;;;;;;9.90;4.90;;;;;;;42.04;11.41;100446.18;107868;1254;74659;-67
2023/05/18 09:58:47;;;;;;;9.60;4.70;;;;;;;42.38;11.42;100442.88;107844;1254;63469;-69
2023/05/18 10:01:14;;;;;;;6.20;4.90;;;;;;;42.57;11.15;100435.45;108040;1254;64728;-69
2023/05/18 10:03:43;;;;;;;10.80;5.40;;;;;;;43.28;11.08;100435.70;107979;1257;60907;-69
2023/05/18 10:06:13;;;;;;;8.60;5.00;;;;;;;43.36;10.79;100438.36;107987;1254;60463;-70
2023/05/18 10:08:40;;;;;;;13.50;6.20;;;;;;;43.25;10.49;100432.29;107906;1254;66279;-69
2023/05/18 10:11:07;;;;;;;10.70;4.80;;;;;;;42.88;10.68;100434.80;107970;1254;62676;-68
2023/05/18 10:13:34;;;;;;;8.20;5.40;;;;;;;41.97;10.68;100435.85;107810;1254;66296;-72
2023/05/18 10:16:02;;;;;;;10.40;4.80;;;;;;;41.61;10.96;100433.92;107976;1254;60475;-71
2023/05/18 10:18:36;;;;;;;8.30;4.70;;;;;;;41.44;11.10;100434.15;108066;1254;60265;-72
2023/05/18 10:21:04;;;;;;;9.00;5.00;;;;;;;41.49;11.09;100434.06;108006;1254;67272;-70
2023/05/18 10:23:35;;;;;;;7.50;5.50;;;;;;;41.88;11.26;100430.36;108072;1254;63773;-71
2023/05/18 10:26:04;;;;;;;8.90;5.20;;;;;;;42.55;11.22;100427.77;108151;1254;65014;-68
2023/05/18 10:28:35;;;;;;;9.20;5.10;;;;;;;43.07;10.64;100429.33;108132;1253;60443;-69
2023/05/18 10:31:03;;;;;;;11.10;5.40;;;;;;;43.41;10.65;100430.20;108121;1253;60344;-69
2023/05/18 10:33:30;;;;;;;6.70;4.70;;;;;;;43.61;10.15;100431.04;108014;1254;66250;-69
2023/05/18 10:35:57;;;;;;;13.20;5.70;;;;;;;43.40;10.07;100422.80;108114;1254;63756;-68
2023/05/18 10:38:26;;;;;;;6.60;4.80;;;;;;;43.57;10.13;100422.70;108099;1254;65749;-72
2023/05/18 10:40:54;;;;;;;7.10;5.10;;;;;;;43.27;10.01;100425.10;108024;1253;59505;-70
2023/05/18 10:43:31;;;;;;;8.00;4.60;;;;;;;42.39;10.42;100428.26;107943;1254;60277;-70
2023/05/18 10:45:59;;;;;;;9.50;5.20;;;;;;;41.65;10.99;100429.60;107970;1254;66205;-72
2023/05/18 10:48:28;;;;;;;9.10;5.10;;;;;;;41.35;11.28;100429.88;107929;1254;63825;-71
2023/05/18 10:50:56;;;;;;;12.90;5.00;;;;;;;41.21;11.25;100427.55;107934;1254;65690;-69
2023/05/18 10:53:35;;;;;;;5.90;4.70;;;;;;;41.52;11.21;100426.83;107967;1256;60434;-68
2023/05/18 10:56:02;;;;;;;7.70;4.90;;;;;;;41.83;10.99;100428.39;108042;1254;60351;-71
2023/05/18 10:58:29;;;;;;;8.20;5.10;;;;;;;42.03;11.01;100422.81;108034;1254;67055;-70
2023/05/18 11:01:00;;;;;;;6.40;4.80;;;;;;;42.15;10.59;100420.47;107814;1254;62755;-69
2023/05/18 11:03:27;;;;;;;10.20;5.50;;;;;;;42.16;10.77;100416.11;107906;1254;66006;-68
2023/05/18 11:06:11;;;;;;;6.70;5.40;;;;;;;42.24;10.92;100410.52;107876;1254;60331;-68
2023/05/18 11:08:48;;;;;;;8.80;5.40;;;;;;;42.02;11.14;100406.31;107907;1253;60380;-70
2023/05/18 11:11:15;;;;;;;8.80;5.50;;;;;;;41.80;10.75;100408.18;108026;1254;66362;-67
2023/05/18 11:13:49;;;;;;;11.50;5.80;;;;;;;42.11;10.39;100410.73;108035;1253;63503;-69
2023/05/18 11:16:17;;;;;;;9.30;5.20;;;;;;;41.85;10.53;100416.89;107988;1253;65095;-69
2023/05/18 11:18:48;;;;;;;11.60;5.20;;;;;;;41.24;10.99;100411.69;108040;1259;60585;-69
2023/05/18 11:21:19;;;;;;;10.70;5.60;;;;;;;41.39;10.89;100413.19;108117;1253;60351;-68